Terminal Aerodrome Forecast
Issued by NWS

Home | Current Version | Previous Version | Text Only | Print | Product List | Glossary On
Versions: 1 2 3 4 5 6 7 8 9 10 11 12 13 14 15 16
344
FTUS45 KVEF 230037 AAA
TAFBIH
TAF AMD
KBIH 230037Z 2301/2324 01010KT P6SM -SHRA SCT050 BKN080
     FM230600 35012KT P6SM FEW100 BKN200
     FM231600 36017G25KT P6SM SCT250=

USA.gov is the U.S. government's official web portal to all federal, state and local government web resources and services.